sensor_id;sensor_type;location;lat;lon;timestamp;P1;durP1;ratioP1;P2;durP2;ratioP2
37483;SDS011;23337;52.212;9.926;2023-10-19T00:01:54;15.97;;;14.27;;
37483;SDS011;23337;52.212;9.926;2023-10-19T00:04:20;19.33;;;14.50;;
37483;SDS011;23337;52.212;9.926;2023-10-19T00:06:47;16.93;;;14.97;;
37483;SDS011;23337;52.212;9.926;2023-10-19T00:09:14;17.73;;;15.07;;
37483;SDS011;23337;52.212;9.926;2023-10-19T00:11:40;19.30;;;15.07;;
37483;SDS011;23337;52.212;9.926;2023-10-19T00:14:06;16.97;;;15.27;;
37483;SDS011;23337;52.212;9.926;2023-10-19T00:16:41;17.30;;;15.50;;
37483;SDS011;23337;52.212;9.926;2023-10-19T00:19:09;17.57;;;15.37;;
37483;SDS011;23337;52.212;9.926;2023-10-19T00:21:35;19.30;;;16.63;;
37483;SDS011;23337;52.212;9.926;2023-10-19T00:24:15;18.07;;;15.97;;
37483;SDS011;23337;52.212;9.926;2023-10-19T00:26:42;19.73;;;17.20;;
37483;SDS011;23337;52.212;9.926;2023-10-19T00:29:09;19.60;;;17.53;;
37483;SDS011;23337;52.212;9.926;2023-10-19T00:32:04;20.93;;;17.80;;
37483;SDS011;23337;52.212;9.926;2023-10-19T00:34:31;20.33;;;18.13;;
37483;SDS011;23337;52.212;9.926;2023-10-19T00:36:58;21.57;;;18.50;;
37483;SDS011;23337;52.212;9.926;2023-10-19T00:39:32;21.10;;;18.80;;
37483;SDS011;23337;52.212;9.926;2023-10-19T00:42:07;21.17;;;17.17;;
37483;SDS011;23337;52.212;9.926;2023-10-19T00:44:33;19.13;;;16.90;;
37483;SDS011;23337;52.212;9.926;2023-10-19T00:47:07;20.40;;;18.10;;
37483;SDS011;23337;52.212;9.926;2023-10-19T00:49:38;23.87;;;19.87;;
37483;SDS011;23337;52.212;9.926;2023-10-19T00:52:04;22.33;;;20.00;;
37483;SDS011;23337;52.212;9.926;2023-10-19T00:54:44;21.63;;;18.27;;
37483;SDS011;23337;52.212;9.926;2023-10-19T00:57:16;22.43;;;18.67;;
37483;SDS011;23337;52.212;9.926;2023-10-19T00:59:46;21.87;;;19.43;;
37483;SDS011;23337;52.212;9.926;2023-10-19T01:02:19;21.73;;;17.70;;
37483;SDS011;23337;52.212;9.926;2023-10-19T01:04:50;21.30;;;19.17;;
37483;SDS011;23337;52.212;9.926;2023-10-19T01:07:29;24.13;;;19.80;;
37483;SDS011;23337;52.212;9.926;2023-10-19T01:09:56;22.23;;;19.83;;
37483;SDS011;23337;52.212;9.926;2023-10-19T01:12:24;23.20;;;20.63;;
37483;SDS011;23337;52.212;9.926;2023-10-19T01:17:35;25.50;;;22.10;;
37483;SDS011;23337;52.212;9.926;2023-10-19T01:20:08;26.50;;;22.83;;
37483;SDS011;23337;52.212;9.926;2023-10-19T01:25:18;27.60;;;21.07;;
37483;SDS011;23337;52.212;9.926;2023-10-19T01:27:45;26.50;;;21.03;;
37483;SDS011;23337;52.212;9.926;2023-10-19T01:30:12;27.53;;;22.00;;
37483;SDS011;23337;52.212;9.926;2023-10-19T01:32:42;28.80;;;21.53;;
37483;SDS011;23337;52.212;9.926;2023-10-19T01:35:08;23.77;;;21.23;;
37483;SDS011;23337;52.212;9.926;2023-10-19T01:37:36;29.33;;;22.20;;
37483;SDS011;23337;52.212;9.926;2023-10-19T01:40:03;27.47;;;23.87;;
37483;SDS011;23337;52.212;9.926;2023-10-19T01:42:29;27.47;;;21.63;;
37483;SDS011;23337;52.212;9.926;2023-10-19T01:44:55;29.03;;;22.70;;
37483;SDS011;23337;52.212;9.926;2023-10-19T01:47:21;25.40;;;21.43;;
37483;SDS011;23337;52.212;9.926;2023-10-19T01:49:48;27.70;;;21.87;;
37483;SDS011;23337;52.212;9.926;2023-10-19T01:52:17;27.40;;;23.17;;
37483;SDS011;23337;52.212;9.926;2023-10-19T01:54:43;26.50;;;21.63;;
37483;SDS011;23337;52.212;9.926;2023-10-19T01:57:09;26.17;;;21.07;;
37483;SDS011;23337;52.212;9.926;2023-10-19T01:59:37;25.03;;;21.77;;
37483;SDS011;23337;52.212;9.926;2023-10-19T02:02:03;25.67;;;20.60;;
37483;SDS011;23337;52.212;9.926;2023-10-19T02:04:29;25.87;;;22.13;;
37483;SDS011;23337;52.212;9.926;2023-10-19T02:06:59;28.00;;;23.20;;
37483;SDS011;23337;52.212;9.926;2023-10-19T02:09:27;26.87;;;20.87;;
37483;SDS011;23337;52.212;9.926;2023-10-19T02:11:56;26.37;;;22.87;;
37483;SDS011;23337;52.212;9.926;2023-10-19T02:14:23;27.17;;;22.30;;
37483;SDS011;23337;52.212;9.926;2023-10-19T02:16:56;27.57;;;21.97;;
37483;SDS011;23337;52.212;9.926;2023-10-19T02:19:24;27.53;;;23.50;;
37483;SDS011;23337;52.212;9.926;2023-10-19T02:22:00;29.20;;;23.37;;
37483;SDS011;23337;52.212;9.926;2023-10-19T02:24:29;26.00;;;22.57;;
37483;SDS011;23337;52.212;9.926;2023-10-19T02:26:55;27.17;;;23.73;;
37483;SDS011;23337;52.212;9.926;2023-10-19T02:29:22;27.23;;;22.90;;
37483;SDS011;23337;52.212;9.926;2023-10-19T02:31:48;26.43;;;22.10;;
37483;SDS011;23337;52.212;9.926;2023-10-19T02:34:18;26.07;;;22.47;;
37483;SDS011;23337;52.212;9.926;2023-10-19T02:36:45;26.80;;;21.63;;
37483;SDS011;23337;52.212;9.926;2023-10-19T02:39:13;27.47;;;21.40;;
37483;SDS011;23337;52.212;9.926;2023-10-19T02:41:40;28.03;;;23.53;;
37483;SDS011;23337;52.212;9.926;2023-10-19T02:44:10;27.50;;;22.33;;
37483;SDS011;23337;52.212;9.926;2023-10-19T02:46:44;28.77;;;22.90;;
37483;SDS011;23337;52.212;9.926;2023-10-19T02:49:11;27.53;;;23.40;;
37483;SDS011;23337;52.212;9.926;2023-10-19T02:51:38;25.73;;;22.23;;
37483;SDS011;23337;52.212;9.926;2023-10-19T02:54:06;31.33;;;23.57;;
37483;SDS011;23337;52.212;9.926;2023-10-19T02:56:32;30.57;;;23.60;;
37483;SDS011;23337;52.212;9.926;2023-10-19T02:59:00;30.80;;;23.23;;
37483;SDS011;23337;52.212;9.926;2023-10-19T03:01:28;26.50;;;22.27;;
37483;SDS011;23337;52.212;9.926;2023-10-19T03:03:58;26.60;;;23.70;;
37483;SDS011;23337;52.212;9.926;2023-10-19T03:06:27;28.47;;;22.27;;
37483;SDS011;23337;52.212;9.926;2023-10-19T03:08:56;28.67;;;22.50;;
37483;SDS011;23337;52.212;9.926;2023-10-19T03:11:47;28.20;;;22.47;;
37483;SDS011;23337;52.212;9.926;2023-10-19T03:14:17;26.67;;;22.40;;
37483;SDS011;23337;52.212;9.926;2023-10-19T03:16:43;34.60;;;23.07;;
37483;SDS011;23337;52.212;9.926;2023-10-19T03:19:10;24.90;;;21.23;;
37483;SDS011;23337;52.212;9.926;2023-10-19T03:21:39;28.10;;;22.70;;
37483;SDS011;23337;52.212;9.926;2023-10-19T03:24:09;28.77;;;23.33;;
37483;SDS011;23337;52.212;9.926;2023-10-19T03:26:48;27.27;;;22.97;;
37483;SDS011;23337;52.212;9.926;2023-10-19T03:29:14;26.87;;;23.97;;
37483;SDS011;23337;52.212;9.926;2023-10-19T03:31:43;27.37;;;22.90;;
37483;SDS011;23337;52.212;9.926;2023-10-19T03:34:09;26.97;;;22.47;;
37483;SDS011;23337;52.212;9.926;2023-10-19T03:36:37;28.67;;;22.07;;
37483;SDS011;23337;52.212;9.926;2023-10-19T03:39:03;27.07;;;22.70;;
37483;SDS011;23337;52.212;9.926;2023-10-19T03:41:36;24.80;;;22.13;;
37483;SDS011;23337;52.212;9.926;2023-10-19T03:44:04;24.13;;;21.17;;
37483;SDS011;23337;52.212;9.926;2023-10-19T03:46:30;25.40;;;22.70;;
37483;SDS011;23337;52.212;9.926;2023-10-19T03:48:59;27.40;;;22.53;;
37483;SDS011;23337;52.212;9.926;2023-10-19T03:51:29;28.13;;;22.53;;
37483;SDS011;23337;52.212;9.926;2023-10-19T03:54:08;27.60;;;22.23;;
37483;SDS011;23337;52.212;9.926;2023-10-19T03:56:48;25.27;;;22.50;;
37483;SDS011;23337;52.212;9.926;2023-10-19T03:59:15;27.80;;;23.30;;
37483;SDS011;23337;52.212;9.926;2023-10-19T04:01:42;27.13;;;22.70;;
37483;SDS011;23337;52.212;9.926;2023-10-19T04:04:08;28.53;;;23.00;;
37483;SDS011;23337;52.212;9.926;2023-10-19T04:06:34;28.50;;;23.87;;
37483;SDS011;23337;52.212;9.926;2023-10-19T04:09:02;27.17;;;22.70;;
37483;SDS011;23337;52.212;9.926;2023-10-19T04:11:30;26.10;;;22.60;;
37483;SDS011;23337;52.212;9.926;2023-10-19T04:14:13;26.00;;;21.43;;
37483;SDS011;23337;52.212;9.926;2023-10-19T04:16:40;23.77;;;20.93;;
37483;SDS011;23337;52.212;9.926;2023-10-19T04:19:08;24.77;;;21.00;;
37483;SDS011;23337;52.212;9.926;2023-10-19T04:21:35;25.93;;;20.60;;
37483;SDS011;23337;52.212;9.926;2023-10-19T04:24:07;24.20;;;20.73;;
37483;SDS011;23337;52.212;9.926;2023-10-19T04:26:34;24.00;;;21.50;;
37483;SDS011;23337;52.212;9.926;2023-10-19T04:29:06;25.67;;;20.77;;
37483;SDS011;23337;52.212;9.926;2023-10-19T04:31:36;23.03;;;19.33;;
37483;SDS011;23337;52.212;9.926;2023-10-19T04:34:03;21.93;;;19.47;;
37483;SDS011;23337;52.212;9.926;2023-10-19T04:36:32;21.73;;;19.30;;
37483;SDS011;23337;52.212;9.926;2023-10-19T04:38:59;21.23;;;19.03;;
37483;SDS011;23337;52.212;9.926;2023-10-19T04:41:25;20.43;;;18.37;;
37483;SDS011;23337;52.212;9.926;2023-10-19T04:43:54;19.37;;;17.33;;
37483;SDS011;23337;52.212;9.926;2023-10-19T04:46:23;21.70;;;19.10;;
37483;SDS011;23337;52.212;9.926;2023-10-19T04:48:49;20.53;;;18.33;;
37483;SDS011;23337;52.212;9.926;2023-10-19T04:51:15;19.90;;;17.80;;
37483;SDS011;23337;52.212;9.926;2023-10-19T04:53:42;20.53;;;18.33;;
37483;SDS011;23337;52.212;9.926;2023-10-19T04:56:08;19.87;;;17.73;;
37483;SDS011;23337;52.212;9.926;2023-10-19T04:58:34;18.27;;;16.13;;
37483;SDS011;23337;52.212;9.926;2023-10-19T05:01:01;19.77;;;17.33;;
37483;SDS011;23337;52.212;9.926;2023-10-19T05:03:28;20.03;;;17.93;;
37483;SDS011;23337;52.212;9.926;2023-10-19T05:05:55;19.93;;;17.87;;
37483;SDS011;23337;52.212;9.926;2023-10-19T05:08:24;19.43;;;16.60;;
37483;SDS011;23337;52.212;9.926;2023-10-19T05:10:53;23.70;;;18.13;;
37483;SDS011;23337;52.212;9.926;2023-10-19T05:13:19;21.60;;;18.70;;
37483;SDS011;23337;52.212;9.926;2023-10-19T05:15:45;19.10;;;17.20;;
37483;SDS011;23337;52.212;9.926;2023-10-19T05:18:12;20.07;;;17.73;;
37483;SDS011;23337;52.212;9.926;2023-10-19T05:20:38;18.30;;;16.50;;
37483;SDS011;23337;52.212;9.926;2023-10-19T05:23:06;19.60;;;17.50;;
37483;SDS011;23337;52.212;9.926;2023-10-19T05:25:32;20.77;;;18.57;;
37483;SDS011;23337;52.212;9.926;2023-10-19T05:27:58;20.20;;;16.97;;
37483;SDS011;23337;52.212;9.926;2023-10-19T05:30:25;19.40;;;17.33;;
37483;SDS011;23337;52.212;9.926;2023-10-19T05:32:51;18.83;;;15.93;;
37483;SDS011;23337;52.212;9.926;2023-10-19T05:35:17;18.50;;;16.37;;
37483;SDS011;23337;52.212;9.926;2023-10-19T05:37:51;20.07;;;17.97;;
37483;SDS011;23337;52.212;9.926;2023-10-19T05:40:17;19.30;;;16.70;;
37483;SDS011;23337;52.212;9.926;2023-10-19T05:42:44;17.93;;;16.07;;
37483;SDS011;23337;52.212;9.926;2023-10-19T05:45:11;18.53;;;16.53;;
37483;SDS011;23337;52.212;9.926;2023-10-19T05:47:38;17.40;;;15.47;;
37483;SDS011;23337;52.212;9.926;2023-10-19T05:50:04;18.53;;;15.97;;
37483;SDS011;23337;52.212;9.926;2023-10-19T05:52:30;17.87;;;15.03;;
37483;SDS011;23337;52.212;9.926;2023-10-19T05:54:56;17.70;;;15.80;;
37483;SDS011;23337;52.212;9.926;2023-10-19T05:57:22;16.97;;;15.17;;
37483;SDS011;23337;52.212;9.926;2023-10-19T05:59:49;16.70;;;14.97;;
37483;SDS011;23337;52.212;9.926;2023-10-19T06:02:15;15.77;;;14.10;;
37483;SDS011;23337;52.212;9.926;2023-10-19T06:04:42;15.20;;;13.60;;
37483;SDS011;23337;52.212;9.926;2023-10-19T06:07:08;15.80;;;14.20;;
37483;SDS011;23337;52.212;9.926;2023-10-19T06:09:35;13.47;;;12.17;;
37483;SDS011;23337;52.212;9.926;2023-10-19T06:12:01;13.30;;;12.00;;
37483;SDS011;23337;52.212;9.926;2023-10-19T06:14:27;12.87;;;11.57;;
37483;SDS011;23337;52.212;9.926;2023-10-19T06:16:55;13.10;;;11.77;;
37483;SDS011;23337;52.212;9.926;2023-10-19T06:19:21;12.07;;;10.87;;
37483;SDS011;23337;52.212;9.926;2023-10-19T06:21:47;12.10;;;10.90;;
37483;SDS011;23337;52.212;9.926;2023-10-19T06:24:15;11.40;;;10.23;;
37483;SDS011;23337;52.212;9.926;2023-10-19T06:26:42;10.70;;;9.67;;
37483;SDS011;23337;52.212;9.926;2023-10-19T06:29:08;11.73;;;10.57;;
37483;SDS011;23337;52.212;9.926;2023-10-19T06:31:34;10.27;;;9.23;;
37483;SDS011;23337;52.212;9.926;2023-10-19T06:34:00;10.77;;;9.70;;
37483;SDS011;23337;52.212;9.926;2023-10-19T06:36:27;10.13;;;9.13;;
37483;SDS011;23337;52.212;9.926;2023-10-19T06:38:54;10.07;;;9.07;;
37483;SDS011;23337;52.212;9.926;2023-10-19T06:41:20;10.93;;;9.83;;
37483;SDS011;23337;52.212;9.926;2023-10-19T06:43:46;9.77;;;8.87;;
37483;SDS011;23337;52.212;9.926;2023-10-19T06:46:12;10.50;;;9.47;;
37483;SDS011;23337;52.212;9.926;2023-10-19T06:48:39;9.47;;;8.53;;
37483;SDS011;23337;52.212;9.926;2023-10-19T06:51:05;10.20;;;9.10;;
37483;SDS011;23337;52.212;9.926;2023-10-19T06:53:31;9.77;;;8.87;;
37483;SDS011;23337;52.212;9.926;2023-10-19T06:55:58;9.83;;;8.93;;
37483;SDS011;23337;52.212;9.926;2023-10-19T06:58:24;10.00;;;9.00;;
37483;SDS011;23337;52.212;9.926;2023-10-19T07:00:51;9.90;;;8.90;;
37483;SDS011;23337;52.212;9.926;2023-10-19T07:03:33;10.20;;;9.13;;
37483;SDS011;23337;52.212;9.926;2023-10-19T07:05:59;9.30;;;8.40;;
37483;SDS011;23337;52.212;9.926;2023-10-19T07:08:27;9.83;;;8.93;;
37483;SDS011;23337;52.212;9.926;2023-10-19T07:10:53;10.27;;;9.27;;
37483;SDS011;23337;52.212;9.926;2023-10-19T07:13:19;9.77;;;8.77;;
37483;SDS011;23337;52.212;9.926;2023-10-19T07:15:47;10.00;;;9.00;;
37483;SDS011;23337;52.212;9.926;2023-10-19T07:18:14;9.53;;;8.53;;
37483;SDS011;23337;52.212;9.926;2023-10-19T07:20:40;9.60;;;8.70;;
37483;SDS011;23337;52.212;9.926;2023-10-19T07:23:07;9.43;;;8.53;;
37483;SDS011;23337;52.212;9.926;2023-10-19T07:25:59;9.10;;;8.20;;
37483;SDS011;23337;52.212;9.926;2023-10-19T07:28:25;9.13;;;8.30;;
37483;SDS011;23337;52.212;9.926;2023-10-19T07:30:51;9.07;;;8.17;;
37483;SDS011;23337;52.212;9.926;2023-10-19T07:33:18;8.83;;;8.00;;
37483;SDS011;23337;52.212;9.926;2023-10-19T07:35:45;8.53;;;7.73;;
37483;SDS011;23337;52.212;9.926;2023-10-19T07:38:12;9.27;;;8.40;;
37483;SDS011;23337;52.212;9.926;2023-10-19T07:40:39;10.77;;;8.33;;
37483;SDS011;23337;52.212;9.926;2023-10-19T07:43:05;9.50;;;8.50;;
37483;SDS011;23337;52.212;9.926;2023-10-19T07:45:31;8.67;;;7.70;;
37483;SDS011;23337;52.212;9.926;2023-10-19T07:47:59;9.53;;;8.53;;
37483;SDS011;23337;52.212;9.926;2023-10-19T07:50:31;9.50;;;8.50;;
37483;SDS011;23337;52.212;9.926;2023-10-19T07:52:57;9.47;;;8.57;;
37483;SDS011;23337;52.212;9.926;2023-10-19T07:55:23;8.83;;;8.03;;
37483;SDS011;23337;52.212;9.926;2023-10-19T07:57:50;8.80;;;8.00;;
37483;SDS011;23337;52.212;9.926;2023-10-19T08:00:17;9.80;;;8.95;;
37483;SDS011;23337;52.212;9.926;2023-10-19T08:02:43;8.73;;;7.93;;
37483;SDS011;23337;52.212;9.926;2023-10-19T08:05:13;9.87;;;8.87;;
37483;SDS011;23337;52.212;9.926;2023-10-19T08:07:39;10.07;;;9.03;;
37483;SDS011;23337;52.212;9.926;2023-10-19T08:10:07;9.53;;;8.60;;
37483;SDS011;23337;52.212;9.926;2023-10-19T08:12:35;8.70;;;7.90;;
37483;SDS011;23337;52.212;9.926;2023-10-19T08:15:01;9.03;;;8.20;;
37483;SDS011;23337;52.212;9.926;2023-10-19T08:17:28;10.10;;;9.20;;
37483;SDS011;23337;52.212;9.926;2023-10-19T08:19:54;8.83;;;8.03;;
37483;SDS011;23337;52.212;9.926;2023-10-19T08:22:20;10.43;;;9.47;;
37483;SDS011;23337;52.212;9.926;2023-10-19T08:24:46;9.27;;;8.37;;
37483;SDS011;23337;52.212;9.926;2023-10-19T08:27:12;9.83;;;8.90;;
37483;SDS011;23337;52.212;9.926;2023-10-19T08:29:38;9.33;;;8.43;;
37483;SDS011;23337;52.212;9.926;2023-10-19T08:32:04;8.27;;;7.47;;
37483;SDS011;23337;52.212;9.926;2023-10-19T08:34:35;9.07;;;8.27;;
37483;SDS011;23337;52.212;9.926;2023-10-19T08:37:01;9.03;;;8.20;;
37483;SDS011;23337;52.212;9.926;2023-10-19T08:39:29;9.80;;;8.87;;
37483;SDS011;23337;52.212;9.926;2023-10-19T08:42:01;9.70;;;8.73;;
37483;SDS011;23337;52.212;9.926;2023-10-19T08:44:27;9.20;;;8.30;;
37483;SDS011;23337;52.212;9.926;2023-10-19T08:46:55;9.83;;;8.93;;
37483;SDS011;23337;52.212;9.926;2023-10-19T08:49:22;9.27;;;8.37;;
37483;SDS011;23337;52.212;9.926;2023-10-19T08:51:48;10.20;;;9.30;;
37483;SDS011;23337;52.212;9.926;2023-10-19T08:54:14;10.33;;;9.23;;
37483;SDS011;23337;52.212;9.926;2023-10-19T08:56:42;9.77;;;8.77;;
37483;SDS011;23337;52.212;9.926;2023-10-19T08:59:08;10.40;;;9.33;;
37483;SDS011;23337;52.212;9.926;2023-10-19T09:01:36;9.03;;;8.23;;
37483;SDS011;23337;52.212;9.926;2023-10-19T09:04:02;10.00;;;8.73;;
37483;SDS011;23337;52.212;9.926;2023-10-19T09:06:31;10.10;;;9.10;;
37483;SDS011;23337;52.212;9.926;2023-10-19T09:08:57;10.37;;;9.47;;
37483;SDS011;23337;52.212;9.926;2023-10-19T09:11:23;10.00;;;9.10;;
37483;SDS011;23337;52.212;9.926;2023-10-19T09:13:50;9.73;;;8.80;;
37483;SDS011;23337;52.212;9.926;2023-10-19T09:16:17;9.47;;;8.63;;
37483;SDS011;23337;52.212;9.926;2023-10-19T09:18:43;10.33;;;9.33;;
37483;SDS011;23337;52.212;9.926;2023-10-19T09:21:10;10.23;;;9.20;;
37483;SDS011;23337;52.212;9.926;2023-10-19T09:23:49;9.93;;;9.03;;
37483;SDS011;23337;52.212;9.926;2023-10-19T09:26:15;10.57;;;9.57;;
37483;SDS011;23337;52.212;9.926;2023-10-19T09:28:41;10.83;;;9.83;;
37483;SDS011;23337;52.212;9.926;2023-10-19T09:31:07;10.33;;;9.23;;
37483;SDS011;23337;52.212;9.926;2023-10-19T09:33:34;11.23;;;9.47;;
37483;SDS011;23337;52.212;9.926;2023-10-19T09:36:01;10.33;;;9.33;;
37483;SDS011;23337;52.212;9.926;2023-10-19T09:38:29;12.07;;;9.93;;
37483;SDS011;23337;52.212;9.926;2023-10-19T09:40:55;12.00;;;10.80;;
37483;SDS011;23337;52.212;9.926;2023-10-19T09:43:28;11.07;;;10.07;;
37483;SDS011;23337;52.212;9.926;2023-10-19T09:45:56;11.63;;;10.53;;
37483;SDS011;23337;52.212;9.926;2023-10-19T09:48:25;11.40;;;10.40;;
37483;SDS011;23337;52.212;9.926;2023-10-19T09:50:55;10.37;;;9.47;;
37483;SDS011;23337;52.212;9.926;2023-10-19T09:53:25;11.03;;;10.00;;
37483;SDS011;23337;52.212;9.926;2023-10-19T09:55:53;11.47;;;10.33;;
37483;SDS011;23337;52.212;9.926;2023-10-19T09:58:20;10.87;;;9.77;;
37483;SDS011;23337;52.212;9.926;2023-10-19T10:00:49;10.70;;;9.70;;
37483;SDS011;23337;52.212;9.926;2023-10-19T10:06:01;11.27;;;10.27;;
37483;SDS011;23337;52.212;9.926;2023-10-19T10:08:29;12.40;;;11.10;;
37483;SDS011;23337;52.212;9.926;2023-10-19T10:10:55;11.40;;;10.23;;
37483;SDS011;23337;52.212;9.926;2023-10-19T10:15:54;12.40;;;11.30;;
37483;SDS011;23337;52.212;9.926;2023-10-19T10:18:21;10.20;;;9.30;;
37483;SDS011;23337;52.212;9.926;2023-10-19T10:21:04;11.00;;;9.90;;
37483;SDS011;23337;52.212;9.926;2023-10-19T10:23:30;10.13;;;9.13;;
37483;SDS011;23337;52.212;9.926;2023-10-19T10:25:59;10.07;;;9.23;;
37483;SDS011;23337;52.212;9.926;2023-10-19T10:28:25;10.60;;;9.40;;
37483;SDS011;23337;52.212;9.926;2023-10-19T10:31:12;10.60;;;9.57;;
37483;SDS011;23337;52.212;9.926;2023-10-19T10:33:42;10.00;;;9.10;;
37483;SDS011;23337;52.212;9.926;2023-10-19T10:36:10;10.83;;;9.83;;
37483;SDS011;23337;52.212;9.926;2023-10-19T10:38:36;10.43;;;9.53;;
37483;SDS011;23337;52.212;9.926;2023-10-19T10:41:02;10.33;;;9.33;;
37483;SDS011;23337;52.212;9.926;2023-10-19T10:43:29;11.43;;;10.30;;
37483;SDS011;23337;52.212;9.926;2023-10-19T10:46:04;10.87;;;9.87;;
37483;SDS011;23337;52.212;9.926;2023-10-19T10:48:32;11.83;;;10.63;;
37483;SDS011;23337;52.212;9.926;2023-10-19T10:50:58;10.43;;;9.53;;
37483;SDS011;23337;52.212;9.926;2023-10-19T10:53:24;11.03;;;10.03;;
37483;SDS011;23337;52.212;9.926;2023-10-19T10:55:51;11.40;;;10.20;;
37483;SDS011;23337;52.212;9.926;2023-10-19T10:58:18;9.97;;;9.10;;
37483;SDS011;23337;52.212;9.926;2023-10-19T11:00:44;12.03;;;10.27;;
37483;SDS011;23337;52.212;9.926;2023-10-19T11:03:12;13.30;;;12.00;;
37483;SDS011;23337;52.212;9.926;2023-10-19T11:05:39;11.77;;;10.67;;
37483;SDS011;23337;52.212;9.926;2023-10-19T11:08:08;12.27;;;11.07;;
37483;SDS011;23337;52.212;9.926;2023-10-19T11:10:38;11.90;;;10.80;;
37483;SDS011;23337;52.212;9.926;2023-10-19T11:13:05;11.50;;;10.40;;
37483;SDS011;23337;52.212;9.926;2023-10-19T11:15:31;12.23;;;10.57;;
37483;SDS011;23337;52.212;9.926;2023-10-19T11:17:58;11.47;;;10.37;;
37483;SDS011;23337;52.212;9.926;2023-10-19T11:20:24;11.17;;;10.17;;
37483;SDS011;23337;52.212;9.926;2023-10-19T11:22:51;12.80;;;11.43;;
37483;SDS011;23337;52.212;9.926;2023-10-19T11:25:18;12.60;;;11.40;;
37483;SDS011;23337;52.212;9.926;2023-10-19T11:27:44;11.30;;;10.20;;
37483;SDS011;23337;52.212;9.926;2023-10-19T11:30:10;12.60;;;11.40;;
37483;SDS011;23337;52.212;9.926;2023-10-19T11:32:37;11.00;;;9.90;;
37483;SDS011;23337;52.212;9.926;2023-10-19T11:35:05;12.40;;;11.30;;
37483;SDS011;23337;52.212;9.926;2023-10-19T11:40:12;11.83;;;10.57;;
37483;SDS011;23337;52.212;9.926;2023-10-19T11:42:38;13.33;;;12.07;;
37483;SDS011;23337;52.212;9.926;2023-10-19T11:45:05;13.47;;;12.17;;
37483;SDS011;23337;52.212;9.926;2023-10-19T11:47:31;16.23;;;12.43;;
37483;SDS011;23337;52.212;9.926;2023-10-19T11:49:57;12.33;;;11.10;;
37483;SDS011;23337;52.212;9.926;2023-10-19T11:52:23;12.87;;;11.67;;
37483;SDS011;23337;52.212;9.926;2023-10-19T11:54:49;12.17;;;10.97;;
37483;SDS011;23337;52.212;9.926;2023-10-19T11:57:15;12.73;;;11.43;;
37483;SDS011;23337;52.212;9.926;2023-10-19T11:59:41;12.93;;;11.63;;
37483;SDS011;23337;52.212;9.926;2023-10-19T12:02:07;12.60;;;11.40;;
37483;SDS011;23337;52.212;9.926;2023-10-19T12:04:34;13.37;;;12.07;;
37483;SDS011;23337;52.212;9.926;2023-10-19T12:07:01;13.50;;;12.20;;
37483;SDS011;23337;52.212;9.926;2023-10-19T12:09:28;12.73;;;11.50;;
37483;SDS011;23337;52.212;9.926;2023-10-19T12:11:55;12.33;;;11.03;;
37483;SDS011;23337;52.212;9.926;2023-10-19T12:14:21;13.33;;;11.03;;
37483;SDS011;23337;52.212;9.926;2023-10-19T12:16:48;12.83;;;11.53;;
37483;SDS011;23337;52.212;9.926;2023-10-19T12:19:14;13.53;;;12.33;;
37483;SDS011;23337;52.212;9.926;2023-10-19T12:21:40;13.10;;;11.80;;
37483;SDS011;23337;52.212;9.926;2023-10-19T12:24:07;12.83;;;11.50;;
37483;SDS011;23337;52.212;9.926;2023-10-19T12:26:33;13.00;;;11.80;;
37483;SDS011;23337;52.212;9.926;2023-10-19T12:28:59;12.37;;;11.07;;
37483;SDS011;23337;52.212;9.926;2023-10-19T12:31:25;12.10;;;10.90;;
37483;SDS011;23337;52.212;9.926;2023-10-19T12:33:51;13.03;;;11.80;;
37483;SDS011;23337;52.212;9.926;2023-10-19T12:36:17;12.73;;;11.50;;
37483;SDS011;23337;52.212;9.926;2023-10-19T12:38:52;13.53;;;12.13;;
37483;SDS011;23337;52.212;9.926;2023-10-19T12:41:19;12.50;;;10.63;;
37483;SDS011;23337;52.212;9.926;2023-10-19T12:43:46;12.90;;;11.60;;
37483;SDS011;23337;52.212;9.926;2023-10-19T12:46:13;14.17;;;12.70;;
37483;SDS011;23337;52.212;9.926;2023-10-19T12:48:39;13.77;;;12.33;;
37483;SDS011;23337;52.212;9.926;2023-10-19T12:51:05;13.13;;;11.77;;
37483;SDS011;23337;52.212;9.926;2023-10-19T12:53:36;13.70;;;12.30;;
37483;SDS011;23337;52.212;9.926;2023-10-19T12:56:03;13.70;;;12.30;;
37483;SDS011;23337;52.212;9.926;2023-10-19T12:58:30;13.40;;;11.60;;
37483;SDS011;23337;52.212;9.926;2023-10-19T13:00:57;13.67;;;12.27;;
37483;SDS011;23337;52.212;9.926;2023-10-19T13:03:23;14.27;;;12.83;;
37483;SDS011;23337;52.212;9.926;2023-10-19T13:05:52;15.93;;;14.23;;
37483;SDS011;23337;52.212;9.926;2023-10-19T13:08:18;15.03;;;13.37;;
37483;SDS011;23337;52.212;9.926;2023-10-19T13:10:46;14.30;;;12.73;;
37483;SDS011;23337;52.212;9.926;2023-10-19T13:13:13;16.67;;;14.03;;
37483;SDS011;23337;52.212;9.926;2023-10-19T13:15:44;14.33;;;12.70;;
37483;SDS011;23337;52.212;9.926;2023-10-19T13:18:11;16.27;;;14.33;;
37483;SDS011;23337;52.212;9.926;2023-10-19T13:20:47;19.40;;;16.47;;
37483;SDS011;23337;52.212;9.926;2023-10-19T13:23:13;20.33;;;16.27;;
37483;SDS011;23337;52.212;9.926;2023-10-19T13:25:46;19.10;;;16.23;;
37483;SDS011;23337;52.212;9.926;2023-10-19T13:28:18;20.90;;;17.53;;
37483;SDS011;23337;52.212;9.926;2023-10-19T13:30:48;22.10;;;19.03;;
37483;SDS011;23337;52.212;9.926;2023-10-19T13:33:14;22.67;;;18.80;;
37483;SDS011;23337;52.212;9.926;2023-10-19T13:35:41;25.07;;;20.70;;
37483;SDS011;23337;52.212;9.926;2023-10-19T13:38:07;25.33;;;19.47;;
37483;SDS011;23337;52.212;9.926;2023-10-19T13:40:34;23.10;;;18.83;;
37483;SDS011;23337;52.212;9.926;2023-10-19T13:43:01;25.83;;;19.90;;
37483;SDS011;23337;52.212;9.926;2023-10-19T13:45:30;28.10;;;20.60;;
37483;SDS011;23337;52.212;9.926;2023-10-19T13:47:57;22.07;;;18.77;;
37483;SDS011;23337;52.212;9.926;2023-10-19T13:50:23;26.57;;;19.97;;
37483;SDS011;23337;52.212;9.926;2023-10-19T13:52:51;25.00;;;19.83;;
37483;SDS011;23337;52.212;9.926;2023-10-19T13:55:18;29.97;;;22.17;;
37483;SDS011;23337;52.212;9.926;2023-10-19T13:57:45;24.00;;;18.60;;
37483;SDS011;23337;52.212;9.926;2023-10-19T14:00:12;27.83;;;21.87;;
37483;SDS011;23337;52.212;9.926;2023-10-19T14:02:45;26.33;;;20.97;;
37483;SDS011;23337;52.212;9.926;2023-10-19T14:05:12;27.40;;;20.73;;
37483;SDS011;23337;52.212;9.926;2023-10-19T14:07:38;26.87;;;20.33;;
37483;SDS011;23337;52.212;9.926;2023-10-19T14:10:05;26.57;;;20.37;;
37483;SDS011;23337;52.212;9.926;2023-10-19T14:12:31;27.60;;;22.20;;
37483;SDS011;23337;52.212;9.926;2023-10-19T14:14:58;26.10;;;20.80;;
37483;SDS011;23337;52.212;9.926;2023-10-19T14:17:24;28.57;;;20.90;;
37483;SDS011;23337;52.212;9.926;2023-10-19T14:19:50;27.40;;;20.73;;
37483;SDS011;23337;52.212;9.926;2023-10-19T14:22:16;25.03;;;20.93;;
37483;SDS011;23337;52.212;9.926;2023-10-19T14:24:42;26.93;;;20.53;;
37483;SDS011;23337;52.212;9.926;2023-10-19T14:27:10;25.20;;;19.80;;
37483;SDS011;23337;52.212;9.926;2023-10-19T14:29:36;24.43;;;19.97;;
37483;SDS011;23337;52.212;9.926;2023-10-19T14:32:02;29.40;;;22.13;;
37483;SDS011;23337;52.212;9.926;2023-10-19T14:34:28;26.37;;;20.77;;
37483;SDS011;23337;52.212;9.926;2023-10-19T14:36:54;26.47;;;20.80;;
37483;SDS011;23337;52.212;9.926;2023-10-19T14:39:20;29.67;;;21.53;;
37483;SDS011;23337;52.212;9.926;2023-10-19T14:41:46;25.33;;;21.07;;
37483;SDS011;23337;52.212;9.926;2023-10-19T14:44:12;28.00;;;23.40;;